Time;durP1;ratioP1;P1;durP2;ratioP2;P2;SDS_P1;SDS_P2;PMS_P1;PMS_P2;Temp;Humidity;BMP_temperature;BMP_pressure;BME280_temperature;BME280_humidity;BME280_pressure;Samples;Min_cycle;Max_cycle;Signal;HPM_P1;HPM_P2
2023/04/25 00:00:21;;;;;;;2.97;2.40;;;;;;;11.82;100.00;64189.69;5053356;28;20668;-55
2023/04/25 00:02:46;;;;;;;3.23;2.90;;;;;;;11.90;100.00;64199.88;5053464;28;20194;-56
2023/04/25 00:05:14;;;;;;;4.27;3.00;;;;;;;11.82;100.00;64192.22;5053375;28;20585;-57
2023/04/25 00:07:41;;;;;;;3.63;2.73;;;;;;;11.75;100.00;64184.00;5053159;28;20181;-58
2023/04/25 00:10:08;;;;;;;3.97;2.83;;;;;;;11.85;100.00;64194.41;5052376;28;20196;-56
2023/04/25 00:12:33;;;;;;;6.53;3.67;;;;;;;11.69;100.00;64175.44;5053145;28;20184;-58
2023/04/25 00:14:59;;;;;;;3.90;3.43;;;;;;;11.69;100.00;64174.91;5053244;28;20651;-60
2023/04/25 00:17:25;;;;;;;3.77;3.10;;;;;;;11.92;100.00;64202.09;5035061;28;20364;-58
2023/04/25 00:19:50;;;;;;;3.63;3.13;;;;;;;11.93;100.00;64203.72;5052917;28;20726;-59
2023/04/25 00:22:17;;;;;;;3.40;2.93;;;;;;;12.05;100.00;64216.31;5052969;28;20217;-59
2023/04/25 00:24:42;;;;;;;3.70;3.17;;;;;;;11.76;100.00;64183.09;5053054;28;20205;-58
2023/04/25 00:27:08;;;;;;;3.90;3.10;;;;;;;11.58;100.00;64165.34;5052985;28;20255;-57
2023/04/25 00:29:34;;;;;;;5.27;3.50;;;;;;;11.32;100.00;64139.94;5052788;28;20255;-59
2023/04/25 00:32:00;;;;;;;3.70;3.27;;;;;;;11.30;100.00;64134.66;5052925;28;20659;-59
2023/04/25 00:34:25;;;;;;;4.00;3.50;;;;;;;11.40;100.00;64143.09;5052924;28;20768;-57
2023/04/25 00:36:51;;;;;;;5.00;3.50;;;;;;;11.44;100.00;64150.00;5035160;28;20196;-57
2023/04/25 00:39:16;;;;;;;4.27;3.87;;;;;;;11.31;100.00;64135.75;5052973;28;20217;-58
2023/04/25 00:41:42;;;;;;;4.63;3.27;;;;;;;11.35;100.00;64137.63;5052559;28;20193;-58
2023/04/25 00:44:11;;;;;;;4.63;3.97;;;;;;;11.12;100.00;64114.94;5053080;28;20694;-58
2023/04/25 00:46:36;;;;;;;5.57;3.33;;;;;;;11.23;100.00;64132.59;5018573;28;20189;-58
2023/04/25 00:49:02;;;;;;;5.70;3.33;;;;;;;11.28;100.00;64130.50;5034948;28;20698;-56
2023/04/25 00:51:28;;;;;;;5.33;3.73;;;;;;;11.30;100.00;64135.22;5052556;28;20250;-58
2023/04/25 00:53:54;;;;;;;5.83;3.80;;;;;;;11.39;100.00;64142.00;5052680;28;20690;-60
2023/04/25 00:56:20;;;;;;;3.40;2.93;;;;;;;11.37;100.00;64144.84;5052676;28;20209;-57
2023/04/25 00:58:45;;;;;;;3.80;3.30;;;;;;;11.30;100.00;64132.69;5052206;28;20217;-59
2023/04/25 01:01:12;;;;;;;4.20;3.30;;;;;;;11.01;100.00;64103.44;5052487;28;20198;-60
2023/04/25 01:03:41;;;;;;;5.27;3.37;;;;;;;11.11;100.00;64114.38;5052661;28;20209;-56
2023/04/25 01:06:10;;;;;;;5.30;3.43;;;;;;;11.11;100.00;64114.38;5052454;28;20190;-57
2023/04/25 01:08:38;;;;;;;3.93;3.40;;;;;;;11.21;100.00;64125.34;5052540;28;20213;-60
2023/04/25 01:11:04;;;;;;;4.93;3.00;;;;;;;11.49;100.00;64156.00;5052308;28;20276;-59
2023/04/25 01:13:31;;;;;;;4.37;3.20;;;;;;;11.41;100.00;64144.72;5034468;28;20284;-56
2023/04/25 01:15:57;;;;;;;3.30;2.97;;;;;;;11.01;100.00;64098.41;5034357;28;20192;-56
2023/04/25 01:18:22;;;;;;;3.40;2.63;;;;;;;10.74;100.00;64074.44;5052015;28;20658;-58
2023/04/25 01:20:51;;;;;;;3.80;2.90;;;;;;;10.87;100.00;64088.13;5051435;28;20228;-56
2023/04/25 01:23:18;;;;;;;4.33;3.00;;;;;;;11.37;100.00;64145.38;5052235;28;20214;-57
2023/04/25 01:25:44;;;;;;;3.40;2.60;;;;;;;11.38;100.00;64143.44;5051985;28;20216;-56
2023/04/25 01:28:16;;;;;;;3.67;2.70;;;;;;;11.04;100.00;64104.22;5052194;28;20698;-57
2023/04/25 01:30:43;;;;;;;3.50;2.73;;;;;;;11.05;100.00;64105.31;5051995;28;20212;-58
2023/04/25 01:33:09;;;;;;;3.53;2.83;;;;;;;11.21;100.00;64122.28;5052161;28;20259;-58
2023/04/25 01:35:34;;;;;;;4.93;3.00;;;;;;;11.49;100.00;64155.47;5051827;28;20185;-59
2023/04/25 01:38:00;;;;;;;3.40;3.03;;;;;;;11.45;100.00;64151.09;5052160;28;20220;-58
2023/04/25 01:40:27;;;;;;;3.90;3.27;;;;;;;11.31;100.00;64135.75;5051757;28;20190;-58
2023/04/25 01:42:59;;;;;;;3.07;2.70;;;;;;;11.22;100.00;64125.91;5051694;28;20192;-58
2023/04/25 01:45:25;;;;;;;4.00;2.80;;;;;;;11.00;100.00;64102.34;5051933;28;20193;-58
2023/04/25 01:47:50;;;;;;;3.33;2.67;;;;;;;10.91;100.00;64092.50;5033771;28;20223;-58
2023/04/25 01:50:20;;;;;;;5.10;3.37;;;;;;;11.03;100.00;64103.09;5051826;28;20593;-57
2023/04/25 01:52:45;;;;;;;3.40;2.93;;;;;;;11.18;100.00;64119.00;5051686;28;20193;-57
2023/04/25 01:55:11;;;;;;;3.27;2.97;;;;;;;11.14;100.00;64115.16;5051549;28;20572;-58
2023/04/25 01:57:36;;;;;;;4.27;3.17;;;;;;;10.77;100.00;64074.66;5051447;28;20216;-59
2023/04/25 02:00:04;;;;;;;3.33;3.03;;;;;;;10.63;100.00;64061.84;5051676;28;20666;-56
2023/04/25 02:02:30;;;;;;;3.73;3.33;;;;;;;10.77;100.00;64074.66;5033771;28;20216;-56
2023/04/25 02:04:56;;;;;;;3.90;3.50;;;;;;;10.95;100.00;64097.44;5051255;28;20255;-57
2023/04/25 02:07:21;;;;;;;4.07;3.57;;;;;;;10.94;100.00;64096.34;5051323;28;20209;-57
2023/04/25 02:09:48;;;;;;;3.70;3.30;;;;;;;10.96;100.00;64096.00;5051212;28;20225;-56
2023/04/25 02:12:13;;;;;;;3.83;3.27;;;;;;;11.24;100.00;64125.56;5051483;28;20189;-59
2023/04/25 02:14:39;;;;;;;5.00;3.50;;;;;;;11.27;100.00;64131.91;5051560;28;20572;-57
2023/04/25 02:17:05;;;;;;;8.03;3.30;;;;;;;11.03;100.00;64103.09;5051185;28;20196;-57
2023/04/25 02:19:30;;;;;;;4.67;3.60;;;;;;;10.93;100.00;64094.69;5051428;28;20788;-56
2023/04/25 02:21:56;;;;;;;5.17;3.33;;;;;;;11.15;100.00;64113.72;5051327;28;20216;-59
2023/04/25 02:24:22;;;;;;;4.20;3.67;;;;;;;10.75;100.00;64073.00;5051241;28;20212;-59
2023/04/25 02:26:49;;;;;;;5.07;3.50;;;;;;;10.47;100.00;64044.31;5033263;28;20215;-57
2023/04/25 02:29:15;;;;;;;4.60;4.13;;;;;;;10.84;100.00;64084.84;5051074;28;20672;-58
2023/04/25 02:31:40;;;;;;;4.10;3.70;;;;;;;10.98;100.00;64098.19;5051091;28;20610;-57
2023/04/25 02:34:05;;;;;;;4.67;3.57;;;;;;;10.99;100.00;64101.25;5050186;28;20588;-56
2023/04/25 02:36:34;;;;;;;4.40;4.00;;;;;;;11.13;100.00;64113.53;5050942;28;20194;-56
2023/04/25 02:39:00;;;;;;;4.33;3.63;;;;;;;10.93;100.00;64095.22;5051166;28;20213;-58
2023/04/25 02:41:25;;;;;;;4.30;3.50;;;;;;;10.88;100.00;64087.25;5050969;28;20281;-58
2023/04/25 02:43:51;;;;;;;4.20;3.47;;;;;;;11.08;100.00;64110.56;5051211;28;20237;-58
2023/04/25 02:46:16;;;;;;;5.00;3.83;;;;;;;10.98;100.00;64097.66;5033023;28;20727;-58
2023/04/25 02:48:42;;;;;;;3.87;3.53;;;;;;;10.99;100.00;64101.81;5033174;28;20213;-60
2023/04/25 02:51:07;;;;;;;3.87;3.20;;;;;;;11.08;100.00;64111.13;5050768;28;20194;-59
2023/04/25 02:53:33;;;;;;;3.77;3.43;;;;;;;11.11;100.00;64113.84;5051106;28;20237;-57
2023/04/25 02:55:59;;;;;;;3.80;3.30;;;;;;;11.19;100.00;64125.16;5051177;28;20576;-57
2023/04/25 02:58:24;;;;;;;4.87;3.33;;;;;;;11.30;100.00;64135.22;5051014;28;20225;-58
2023/04/25 03:00:50;;;;;;;4.40;3.77;;;;;;;11.21;100.00;64122.28;5051024;28;20185;-58
2023/04/25 03:03:17;;;;;;;3.77;3.10;;;;;;;11.18;100.00;64122.06;5050731;28;20617;-57
2023/04/25 03:05:43;;;;;;;3.23;2.93;;;;;;;11.07;100.00;64107.50;5050563;28;20193;-59
2023/04/25 03:08:09;;;;;;;4.63;4.23;;;;;;;11.11;100.00;64111.88;5050770;28;20224;-58
2023/04/25 03:10:34;;;;;;;4.43;4.00;;;;;;;11.09;100.00;64111.66;5050831;28;20656;-60
2023/04/25 03:12:59;;;;;;;3.70;3.17;;;;;;;11.18;100.00;64119.00;5050615;28;20673;-55
2023/04/25 03:15:25;;;;;;;5.57;4.00;;;;;;;11.09;100.00;64112.19;5050659;28;20189;-57
2023/04/25 03:17:50;;;;;;;5.03;3.50;;;;;;;11.15;100.00;64118.78;5050438;28;20756;-57
2023/04/25 03:20:16;;;;;;;4.83;4.27;;;;;;;11.38;100.00;64143.97;5050324;28;20193;-56
2023/04/25 03:22:41;;;;;;;5.17;3.80;;;;;;;11.22;100.00;64125.91;5050520;28;20269;-57
2023/04/25 03:25:07;;;;;;;3.70;3.40;;;;;;;11.17;100.00;64115.38;5050465;28;20186;-56
2023/04/25 03:27:33;;;;;;;5.03;3.77;;;;;;;11.36;100.00;64141.22;5050205;28;20185;-56
2023/04/25 03:29:58;;;;;;;6.43;4.17;;;;;;;11.33;100.00;64135.97;5050305;28;20217;-59
2023/04/25 03:32:24;;;;;;;5.47;4.13;;;;;;;11.40;100.00;64146.16;5050335;28;20178;-60
2023/04/25 03:34:49;;;;;;;4.37;3.83;;;;;;;11.40;100.00;64145.63;5050782;28;20213;-59
2023/04/25 03:37:15;;;;;;;4.43;3.87;;;;;;;11.48;100.00;64154.38;5050272;28;20182;-59
2023/04/25 03:39:40;;;;;;;7.93;4.80;;;;;;;11.27;100.00;64131.91;5050179;28;20212;-61
2023/04/25 03:42:06;;;;;;;5.70;4.43;;;;;;;10.92;100.00;64094.16;5050155;28;20194;-57
2023/04/25 03:44:31;;;;;;;8.03;4.50;;;;;;;10.87;100.00;64088.66;5051550;28;20216;-57
2023/04/25 03:46:57;;;;;;;5.37;4.87;;;;;;;10.29;100.00;64022.09;5035991;28;20189;-55
2023/04/25 03:49:24;;;;;;;9.60;5.40;;;;;;;10.73;100.00;64070.81;5053689;28;20236;-57
2023/04/25 03:51:50;;;;;;;7.37;4.90;;;;;;;10.59;100.00;64054.94;5035594;28;20204;-56
2023/04/25 03:54:15;;;;;;;7.30;5.07;;;;;;;10.33;100.00;64029.56;5053592;28;20209;-58
2023/04/25 03:56:40;;;;;;;35.40;21.07;;;;;;;10.45;100.00;64039.63;5053525;28;20224;-60
2023/04/25 03:59:06;;;;;;;12.63;5.43;;;;;;;10.82;100.00;64080.69;5053356;28;20209;-59
2023/04/25 04:01:31;;;;;;;6.13;5.23;;;;;;;10.75;100.00;64070.50;5053357;28;20301;-58
2023/04/25 04:03:57;;;;;;;11.43;6.10;;;;;;;10.48;100.00;64045.97;5053656;28;20204;-56
2023/04/25 04:06:22;;;;;;;7.70;6.20;;;;;;;10.46;100.00;64041.28;5053340;28;20714;-59
2023/04/25 04:08:48;;;;;;;12.87;8.63;;;;;;;10.70;100.00;64067.00;5053403;28;20244;-59
2023/04/25 04:11:13;;;;;;;7.43;6.60;;;;;;;11.05;100.00;64107.81;5035988;28;20201;-57
2023/04/25 04:13:38;;;;;;;10.33;6.13;;;;;;;11.39;100.00;64142.53;5053439;28;20213;-57
2023/04/25 04:16:04;;;;;;;10.17;6.47;;;;;;;11.52;100.00;64156.25;5035511;28;20217;-57
2023/04/25 04:18:30;;;;;;;11.20;7.23;;;;;;;11.47;100.00;64150.78;5053059;28;20581;-59
2023/04/25 04:20:57;;;;;;;8.70;6.67;;;;;;;11.17;100.00;64120.97;5053051;28;20185;-59
2023/04/25 04:23:23;;;;;;;9.07;6.13;;;;;;;11.44;100.00;64150.56;5053295;28;20260;-57
2023/04/25 04:25:48;;;;;;;10.40;6.70;;;;;;;11.04;100.00;64104.22;5052850;28;20201;-58
2023/04/25 04:28:14;;;;;;;12.47;6.73;;;;;;;12.10;100.00;64221.81;5052761;28;20564;-56
2023/04/25 04:30:41;;;;;;;8.97;7.47;;;;;;;12.19;100.00;64231.66;5052782;28;20234;-57
2023/04/25 04:33:07;;;;;;;9.07;5.73;;;;;;;12.16;100.00;64228.38;5051872;28;20212;-57
2023/04/25 04:35:33;;;;;;;6.67;5.10;;;;;;;12.16;100.00;64228.94;5052658;28;20356;-59
2023/04/25 04:37:58;;;;;;;8.17;5.87;;;;;;;12.00;100.00;64210.84;5052876;28;20221;-57
2023/04/25 04:40:25;;;;;;;6.43;5.83;;;;;;;12.33;100.00;64247.03;5052985;28;20189;-59
2023/04/25 04:42:51;;;;;;;7.30;5.67;;;;;;;12.53;100.00;64264.44;5052703;28;20344;-60
2023/04/25 04:45:16;;;;;;;7.37;5.10;;;;;;;12.45;100.00;64258.19;5052657;28;20273;-61
2023/04/25 04:47:42;;;;;;;7.00;5.40;;;;;;;12.53;100.00;64269.50;5052619;28;20197;-58
2023/04/25 04:50:09;;;;;;;5.87;5.33;;;;;;;12.54;100.00;64267.53;5052815;28;20189;-60
2023/04/25 04:52:38;;;;;;;7.03;5.07;;;;;;;12.45;100.00;64258.19;5052561;28;20194;-60
2023/04/25 04:55:05;;;;;;;6.37;4.73;;;;;;;12.37;100.00;64251.97;5052260;28;20194;-61
2023/04/25 04:57:32;;;;;;;6.13;4.63;;;;;;;12.24;100.00;64234.63;5052104;28;20245;-60
2023/04/25 04:59:58;;;;;;;10.07;6.77;;;;;;;11.73;100.00;64182.34;5052303;28;20717;-59
2023/04/25 05:02:24;;;;;;;6.83;4.27;;;;;;;11.82;100.00;64188.59;5052328;28;20215;-59
2023/04/25 05:04:51;;;;;;;5.00;4.50;;;;;;;11.89;100.00;64199.34;5052446;28;20240;-59
2023/04/25 05:07:16;;;;;;;9.03;4.70;;;;;;;12.20;100.00;64233.31;5052121;28;20682;-61
2023/04/25 05:09:42;;;;;;;5.30;4.20;;;;;;;12.42;100.00;64254.38;5052731;28;20280;-56
2023/04/25 05:12:07;;;;;;;5.70;4.17;;;;;;;12.21;100.00;64234.41;5034408;28;20201;-57
2023/04/25 05:14:33;;;;;;;6.17;5.33;;;;;;;12.02;100.00;64213.56;5052464;28;20198;-57
2023/04/25 05:16:59;;;;;;;9.90;7.10;;;;;;;11.27;100.00;64131.91;5052169;28;20735;-57
2023/04/25 05:19:24;;;;;;;8.83;5.17;;;;;;;11.52;100.00;64158.75;5052401;28;20220;-57
2023/04/25 05:21:50;;;;;;;7.07;5.67;;;;;;;11.65;100.00;64171.03;5052218;28;20584;-56
2023/04/25 05:24:15;;;;;;;7.67;6.23;;;;;;;11.46;100.00;64150.22;5051976;28;20248;-59
2023/04/25 05:26:41;;;;;;;7.53;6.07;;;;;;;11.27;100.00;64131.91;5052210;28;20238;-56
2023/04/25 05:29:06;;;;;;;6.60;5.80;;;;;;;11.53;100.00;64159.88;5051611;28;20213;-57
2023/04/25 05:31:32;;;;;;;5.77;5.13;;;;;;;12.04;100.00;64210.19;5052017;28;20203;-58
2023/04/25 05:33:58;;;;;;;6.60;5.37;;;;;;;11.94;100.00;64204.28;5052049;28;20733;-58
2023/04/25 05:36:24;;;;;;;7.13;5.43;;;;;;;11.68;100.00;64173.78;5051822;28;20193;-59
2023/04/25 05:38:49;;;;;;;6.80;5.63;;;;;;;12.02;100.00;64216.09;5051403;28;20298;-58
2023/04/25 05:41:15;;;;;;;7.13;6.00;;;;;;;12.13;100.00;64222.56;5049607;28;20193;-57
2023/04/25 05:43:45;;;;;;;7.10;5.23;;;;;;;12.24;100.00;64237.16;5051497;28;20240;-60
2023/04/25 05:46:10;;;;;;;6.33;5.73;;;;;;;12.15;100.00;64227.84;5040718;28;20194;-61
2023/04/25 05:48:36;;;;;;;6.47;5.67;;;;;;;11.97;100.00;64205.03;5031825;28;20209;-59
2023/04/25 05:51:01;;;;;;;6.60;5.67;;;;;;;12.10;100.00;64219.28;5031747;28;20328;-59
2023/04/25 05:53:26;;;;;;;8.43;6.77;;;;;;;12.55;100.00;64271.69;5031818;28;20213;-58
2023/04/25 05:55:52;;;;;;;7.00;4.90;;;;;;;12.60;100.00;64276.63;5031724;28;20336;-58
2023/04/25 05:58:18;;;;;;;5.90;5.17;;;;;;;12.60;100.00;64277.16;5031708;28;20221;-59
2023/04/25 06:00:44;;;;;;;6.27;5.60;;;;;;;12.32;100.00;64243.41;5031757;28;20742;-59
2023/04/25 06:03:09;;;;;;;6.83;5.43;;;;;;;12.19;100.00;64229.13;5031786;28;20228;-60
2023/04/25 06:05:36;;;;;;;6.20;5.27;;;;;;;12.45;100.00;64260.19;5031635;28;20186;-57
2023/04/25 06:08:01;;;;;;;5.93;5.03;;;;;;;12.85;100.00;64300.97;5030584;28;20683;-57
2023/04/25 06:10:26;;;;;;;6.77;5.17;;;;;;;12.87;100.00;64303.16;5031393;28;20198;-59
2023/04/25 06:12:52;;;;;;;6.55;5.43;;;;;;;12.88;100.00;64304.81;5013523;28;20679;-61
2023/04/25 06:15:17;;;;;;;5.18;4.68;;;;;;;12.78;100.00;64296.38;5030386;28;20182;-62
2023/04/25 06:17:43;;;;;;;7.13;5.90;;;;;;;12.57;100.00;64273.88;5031061;28;20237;-56
2023/04/25 06:20:09;;;;;;;6.27;5.10;;;;;;;12.39;100.00;64253.59;5031280;28;20190;-57
2023/04/25 06:22:37;;;;;;;6.43;4.90;;;;;;;12.55;100.00;64266.66;5030348;28;20289;-57
2023/04/25 06:25:04;;;;;;;7.03;5.07;;;;;;;12.40;100.00;64252.19;5031311;28;20195;-57
2023/04/25 06:27:30;;;;;;;8.77;5.27;;;;;;;12.22;100.00;64235.50;5013416;28;20596;-57
2023/04/25 06:29:55;;;;;;;5.67;4.87;;;;;;;12.15;100.00;64229.81;5013261;28;20229;-57
2023/04/25 06:32:21;;;;;;;6.23;4.47;;;;;;;12.33;100.00;64245.03;5031017;28;20186;-58
2023/04/25 06:34:46;;;;;;;6.97;5.20;;;;;;;12.69;100.00;64283.97;5031051;28;20226;-60
2023/04/25 06:37:12;;;;;;;11.10;4.80;;;;;;;12.81;100.00;64296.59;5031041;28;20316;-59
2023/04/25 06:39:37;;;;;;;5.70;4.80;;;;;;;12.76;100.00;64288.56;5031213;28;20228;-60
2023/04/25 06:42:02;;;;;;;7.10;5.00;;;;;;;12.79;100.00;64297.47;5031074;28;20197;-60
2023/04/25 06:44:29;;;;;;;10.37;4.97;;;;;;;12.95;100.00;64315.03;5031345;28;20709;-57
2023/04/25 06:46:54;;;;;;;7.25;5.20;;;;;;;13.24;100.00;64344.34;5030891;28;20226;-57
2023/04/25 06:49:20;;;;;;;6.47;4.80;;;;;;;13.48;100.00;64367.59;5031262;28;20221;-57
2023/04/25 06:51:45;;;;;;;6.57;5.10;;;;;;;13.59;100.00;64384.75;5030502;28;20240;-56
2023/04/25 06:54:10;;;;;;;6.90;5.43;;;;;;;13.61;100.00;64383.88;5030968;28;20246;-60
2023/04/25 06:56:36;;;;;;;4.63;4.03;;;;;;;13.66;100.00;64389.91;5030773;28;20186;-60
2023/04/25 06:59:02;;;;;;;6.57;4.15;;;;;;;13.74;100.00;64401.22;5030431;28;20225;-57
2023/04/25 07:01:27;;;;;;;4.67;3.80;;;;;;;13.94;100.00;64420.63;5030432;28;20178;-56
2023/04/25 07:03:52;;;;;;;4.55;3.47;;;;;;;14.17;100.00;64447.91;5030853;28;20624;-57
2023/04/25 07:06:18;;;;;;;4.45;3.60;;;;;;;14.09;100.00;64439.09;5030742;28;20182;-58
2023/04/25 07:08:43;;;;;;;7.78;4.68;;;;;;;14.13;100.00;64438.44;5029471;28;20732;-58
2023/04/25 07:11:08;;;;;;;6.80;4.22;;;;;;;14.29;100.00;64459.13;5030615;28;20186;-57
2023/04/25 07:13:34;;;;;;;5.07;3.75;;;;;;;14.46;99.16;64474.16;5030588;28;20202;-58
2023/04/25 07:16:00;;;;;;;5.97;4.82;;;;;;;14.31;100.00;64463.28;5030623;28;20194;-57
2023/04/25 07:18:25;;;;;;;6.73;4.57;;;;;;;14.37;100.00;64467.34;5029850;28;20242;-56
2023/04/25 07:20:50;;;;;;;6.97;4.15;;;;;;;14.34;100.00;64466.59;5034265;28;20637;-57
2023/04/25 07:23:16;;;;;;;8.73;5.67;;;;;;;13.90;100.00;64415.69;5033869;28;20213;-59
2023/04/25 07:25:41;;;;;;;6.95;3.88;;;;;;;14.20;100.00;64446.66;5033657;28;20279;-60
2023/04/25 07:28:07;;;;;;;7.25;4.30;;;;;;;14.51;100.00;64480.19;5033463;28;20202;-57
2023/04/25 07:30:33;;;;;;;9.25;4.57;;;;;;;14.69;100.00;64502.50;5033888;28;20260;-58
2023/04/25 07:32:59;;;;;;;7.70;4.25;;;;;;;14.62;100.00;64494.84;5033590;28;20210;-58
2023/04/25 07:35:24;;;;;;;5.97;4.18;;;;;;;14.84;100.00;64518.44;5033684;28;20271;-57
2023/04/25 07:37:50;;;;;;;6.95;4.82;;;;;;;14.68;100.00;64503.97;5033514;28;20530;-58
2023/04/25 07:40:16;;;;;;;6.10;4.13;;;;;;;14.86;98.20;64523.19;5033464;28;20183;-60
2023/04/25 07:42:41;;;;;;;7.28;4.25;;;;;;;14.75;97.19;64509.09;5033416;28;20182;-60
2023/04/25 07:45:07;;;;;;;6.28;4.93;;;;;;;14.66;99.46;64499.22;5033280;28;20190;-60
2023/04/25 07:47:32;;;;;;;6.55;4.65;;;;;;;14.65;98.06;64495.59;5033650;28;20269;-60
2023/04/25 07:49:58;;;;;;;8.63;4.60;;;;;;;14.77;96.74;64508.78;5033488;28;20327;-59
2023/04/25 07:52:23;;;;;;;5.72;4.55;;;;;;;14.97;97.31;64532.72;5033338;28;20640;-60
2023/04/25 07:54:49;;;;;;;7.13;4.93;;;;;;;14.94;94.83;64526.91;5032073;28;20218;-61
2023/04/25 07:57:14;;;;;;;6.60;5.00;;;;;;;15.02;98.21;64538.25;5015788;28;20186;-60
2023/04/25 07:59:40;;;;;;;7.82;5.28;;;;;;;14.85;98.65;64520.09;5033264;28;20586;-60
2023/04/25 08:02:05;;;;;;;6.28;5.13;;;;;;;15.08;97.49;64542.31;5032890;28;20281;-57
2023/04/25 08:04:31;;;;;;;9.18;5.00;;;;;;;15.02;97.50;64538.78;5032627;28;20225;-57
2023/04/25 08:06:56;;;;;;;9.40;5.20;;;;;;;14.89;95.84;64527.03;5033204;28;20244;-56
2023/04/25 08:09:22;;;;;;;9.82;5.15;;;;;;;15.18;92.18;64552.75;5033562;28;20260;-58
2023/04/25 08:11:48;;;;;;;6.82;4.82;;;;;;;15.17;91.92;64554.72;5032669;28;20218;-56
2023/04/25 08:14:13;;;;;;;6.85;5.30;;;;;;;15.42;89.81;64579.13;5033507;28;20681;-58
2023/04/25 08:16:39;;;;;;;10.95;4.70;;;;;;;15.73;87.97;64616.34;5032983;28;20190;-57
2023/04/25 08:19:04;;;;;;;7.50;4.32;;;;;;;16.12;91.44;64656.16;5032910;28;20700;-55
2023/04/25 08:21:31;;;;;;;5.03;4.25;;;;;;;16.23;87.44;64670.81;5032591;28;20281;-57
2023/04/25 08:23:57;;;;;;;11.95;4.82;;;;;;;16.62;85.96;64710.69;5032986;28;20202;-57
2023/04/25 08:26:24;;;;;;;7.90;5.00;;;;;;;16.99;86.12;64750.88;5032768;28;20263;-57
2023/04/25 08:28:50;;;;;;;7.18;4.78;;;;;;;16.91;84.39;64742.06;5032697;28;20249;-56
2023/04/25 08:31:16;;;;;;;5.45;4.63;;;;;;;16.82;83.02;64734.69;5031505;28;20212;-56
2023/04/25 08:33:42;;;;;;;5.38;4.00;;;;;;;16.48;76.62;64695.78;5032551;28;20221;-57
2023/04/25 08:36:07;;;;;;;8.73;4.45;;;;;;;16.38;80.31;64687.31;5032785;28;20190;-57
2023/04/25 08:38:33;;;;;;;6.63;3.70;;;;;;;16.61;79.69;64709.56;5032199;28;20217;-57
2023/04/25 08:41:00;;;;;;;6.80;3.63;;;;;;;16.45;82.97;64695.03;5032670;28;20269;-56
2023/04/25 08:43:28;;;;;;;6.90;3.67;;;;;;;16.56;83.98;64707.16;5032310;28;20213;-56
2023/04/25 08:46:00;;;;;;;7.80;4.75;;;;;;;16.62;85.69;64711.22;5032721;28;20190;-58
2023/04/25 08:48:30;;;;;;;5.35;4.57;;;;;;;16.62;88.53;64711.22;5032017;28;20293;-57
2023/04/25 08:50:58;;;;;;;7.18;4.70;;;;;;;16.45;85.45;64691.94;5032683;28;20276;-57
2023/04/25 08:53:29;;;;;;;6.07;3.03;;;;;;;15.34;85.13;64570.88;5014599;28;20213;-58
2023/04/25 08:55:56;;;;;;;4.68;2.40;;;;;;;15.36;82.75;64573.09;5014733;28;20239;-58
2023/04/25 08:58:23;;;;;;;4.68;2.70;;;;;;;15.97;89.56;64639.66;5032385;28;20633;-57
2023/04/25 09:00:50;;;;;;;4.00;2.63;;;;;;;15.82;84.46;64623.72;5032300;28;20735;-59
2023/04/25 09:03:17;;;;;;;5.00;3.00;;;;;;;16.35;83.44;64684.03;5014848;28;20208;-60
2023/04/25 09:05:42;;;;;;;6.63;5.47;;;;;;;16.93;86.23;64746.81;5031904;28;20277;-57
2023/04/25 09:08:08;;;;;;;9.23;5.63;;;;;;;17.32;85.72;64787.78;5032373;28;20284;-57
2023/04/25 09:10:34;;;;;;;4.95;4.55;;;;;;;17.49;86.01;64806.00;5032019;28;20213;-58
2023/04/25 09:13:12;;;;;;;11.77;8.35;;;;;;;17.42;92.58;64798.25;5032356;28;20756;-60
2023/04/25 09:15:58;;;;;;;11.20;7.10;;;;;;;17.26;91.74;64785.72;5031649;28;20759;-57
2023/04/25 09:18:25;;;;;;;7.82;7.03;;;;;;;17.55;87.17;64812.59;5032110;28;20218;-57
2023/04/25 09:20:52;;;;;;;6.90;5.65;;;;;;;17.59;87.35;64817.53;5032192;28;20205;-57
2023/04/25 09:23:21;;;;;;;8.02;5.95;;;;;;;17.42;85.67;64801.34;5031846;28;20218;-57
2023/04/25 09:25:53;;;;;;;7.68;5.07;;;;;;;17.09;85.33;64762.44;5031795;28;20727;-57
2023/04/25 09:28:27;;;;;;;6.53;5.15;;;;;;;17.03;87.43;64755.81;5031674;28;20206;-57
2023/04/25 09:30:57;;;;;;;7.10;5.10;;;;;;;16.99;90.10;64750.88;5031866;28;20683;-57
2023/04/25 09:33:28;;;;;;;9.88;5.43;;;;;;;16.96;87.32;64747.56;5031625;28;20214;-57
2023/04/25 09:36:00;;;;;;;11.38;5.03;;;;;;;16.59;87.28;64707.38;5031749;28;20221;-59
2023/04/25 09:38:26;;;;;;;7.00;4.70;;;;;;;16.40;89.49;64689.53;5031624;28;20213;-57
2023/04/25 09:40:52;;;;;;;5.43;4.57;;;;;;;16.64;89.77;64715.44;5030508;28;20190;-58
2023/04/25 09:43:21;;;;;;;6.40;4.35;;;;;;;16.60;89.00;64714.09;5031347;28;20206;-58
2023/04/25 09:45:47;;;;;;;6.38;4.75;;;;;;;16.42;90.84;64691.19;5013590;28;20692;-58
2023/04/25 09:48:20;;;;;;;5.85;4.15;;;;;;;16.40;90.45;64689.53;5014187;28;20222;-61
2023/04/25 09:51:03;;;;;;;6.78;4.65;;;;;;;16.37;91.36;64683.69;5031609;28;20191;-60
2023/04/25 09:53:28;;;;;;;5.43;4.40;;;;;;;16.24;90.37;64669.38;5031793;28;20210;-60
2023/04/25 09:55:56;;;;;;;6.38;4.50;;;;;;;16.16;90.25;64660.56;5031465;28;20209;-59
2023/04/25 09:58:24;;;;;;;6.05;4.60;;;;;;;16.20;90.87;64662.41;5031276;28;20221;-60
2023/04/25 10:00:50;;;;;;;4.97;3.88;;;;;;;16.02;90.45;64647.16;5031693;28;20194;-59
2023/04/25 10:03:17;;;;;;;5.60;4.18;;;;;;;16.17;89.54;64661.66;5031588;28;20205;-57
2023/04/25 10:05:43;;;;;;;6.50;4.15;;;;;;;16.24;87.09;64668.84;5031357;28;20190;-57
2023/04/25 10:08:09;;;;;;;5.15;3.40;;;;;;;15.83;83.48;64627.34;5031704;28;20297;-60
2023/04/25 10:10:38;;;;;;;5.43;4.10;;;;;;;15.61;85.56;64600.63;5013850;28;20683;-59
2023/04/25 10:13:05;;;;;;;6.95;4.50;;;;;;;15.65;88.01;64605.00;5031421;28;20213;-59
2023/04/25 10:15:35;;;;;;;5.40;4.15;;;;;;;15.56;86.89;64597.09;5031238;28;20199;-59
2023/04/25 10:18:01;;;;;;;5.03;3.78;;;;;;;15.56;87.93;64594.56;5031152;28;20217;-60
2023/04/25 10:20:27;;;;;;;5.05;3.90;;;;;;;15.76;89.04;64619.66;5031079;28;20599;-58
2023/04/25 10:22:56;;;;;;;6.75;4.03;;;;;;;15.90;88.14;64634.50;5030864;28;20656;-57
2023/04/25 10:25:23;;;;;;;7.07;3.85;;;;;;;15.51;93.98;64591.59;5031332;28;20198;-62
2023/04/25 10:27:51;;;;;;;5.97;4.32;;;;;;;15.67;94.47;64606.66;5031196;28;20186;-58
2023/04/25 10:30:18;;;;;;;7.35;4.90;;;;;;;14.91;100.00;64523.59;5031161;28;20197;-59
2023/04/25 10:32:45;;;;;;;7.32;4.20;;;;;;;15.50;100.00;64590.50;5031062;28;20194;-57
2023/04/25 10:35:11;;;;;;;7.90;3.97;;;;;;;16.01;100.00;64644.06;5030834;28;20190;-55
2023/04/25 10:37:37;;;;;;;10.15;6.22;;;;;;;16.92;100.00;64743.72;5030678;28;20182;-57
2023/04/25 10:40:09;;;;;;;5.70;4.00;;;;;;;17.71;100.00;64827.13;5031012;28;20197;-58
2023/04/25 10:42:35;;;;;;;5.15;4.10;;;;;;;18.87;95.01;64954.50;5030969;28;20190;-57
2023/04/25 10:45:07;;;;;;;5.55;4.10;;;;;;;19.68;89.92;65043.94;5030977;28;20213;-58
2023/04/25 10:47:36;;;;;;;7.15;4.78;;;;;;;19.97;86.14;65078.53;5031153;28;20190;-58
2023/04/25 10:50:08;;;;;;;7.40;4.25;;;;;;;18.53;86.85;64919.56;5031191;28;20198;-58
2023/04/25 10:52:33;;;;;;;5.03;3.55;;;;;;;17.53;86.70;64810.94;5031070;28;20320;-56
2023/04/25 10:54:59;;;;;;;8.40;3.63;;;;;;;17.33;90.36;64791.41;5030148;28;20292;-58
2023/04/25 10:57:42;;;;;;;3.33;2.60;;;;;;;17.30;87.15;64785.03;5030882;28;20197;-57
2023/04/25 11:00:11;;;;;;;4.82;2.65;;;;;;;16.92;89.91;64743.72;5013548;28;20198;-59
2023/04/25 11:02:44;;;;;;;3.35;2.03;;;;;;;16.72;80.34;64722.22;5030409;28;20698;-61
2023/04/25 11:05:10;;;;;;;2.38;1.60;;;;;;;16.54;82.44;64704.41;5030711;28;20587;-63
2023/04/25 11:07:54;;;;;;;3.25;1.70;;;;;;;16.58;85.69;64709.34;5030685;28;20667;-60
2023/04/25 11:10:24;;;;;;;2.47;1.58;;;;;;;17.19;83.98;64772.91;5012983;28;20244;-60
2023/04/25 11:12:50;;;;;;;2.75;1.85;;;;;;;17.44;84.92;64800.44;5012441;28;20193;-61
2023/04/25 11:15:16;;;;;;;6.78;1.48;;;;;;;17.52;86.17;64809.84;5030774;28;20559;-60
2023/04/25 11:17:43;;;;;;;5.47;1.30;;;;;;;18.54;77.10;64920.66;5030422;28;20201;-60
2023/04/25 11:20:11;;;;;;;2.60;1.67;;;;;;;19.40;73.46;65015.59;5030416;28;20252;-59
2023/04/25 11:22:38;;;;;;;2.05;1.40;;;;;;;20.39;69.75;65126.97;5012397;28;20189;-61